METAR / TAF

Die METAR- und TAF-Liste ist aus technischen Gründen (Verfügbarkeit, Update-Zyklen) nicht für ein Meteo-Briefing gedacht. Benutzen Sie stattdessen skybriefing der Skyguide  oder das TAMSI (MeteoSchweiz-eigene Meteo Selfbriefing-Plattform für Firmen aus der Aviatik; Anfragen über das

Kontaktformular

METAR Switzerland

METAR     LSZH 241420Z VRB05KT 9999 FEW050 BKN170 22/08 Q1014 NOSIG=
METAR     LSZH 241450Z VRB03KT 9999 FEW050 BKN170 23/08 Q1014 NOSIG=
METAR     LSGG 241420Z 09006KT 050V110 9999 VCSH FEW060TCU SCT130
               23/05 Q1013 NOSIG=
METAR     LSGG 241450Z 03005KT 9999 VCSH FEW060 BKN130 22/08 Q1013
               NOSIG=
METAR     LFSB 241430Z 01004KT 330V050 9999 FEW053 BKN250 23/09
               Q1014 NOSIG=
METAR     LSZB 241420Z 35004KT 9999 FEW050 SCT070 23/08 Q1014 NOSIG=
METAR     LSZB 241450Z VRB02KT 9999 FEW050 SCT085 23/07 Q1013 NOSIG=
METAR     LSZA 241420Z 17004KT 090V210 9999 VCTS FEW055CB BKN130
               21/14 Q1012 TEMPO TSRA=
METAR     LSZA 241450Z 19004KT 130V230 9999 VCTS FEW055CB BKN120
               21/15 Q1012 TEMPO TSRA=
METAR     LSZG 241420Z 06004KT 030V150 9999 FEW065 BKN250 22/08
               Q1014 NOSIG=
METAR     LSZG 241450Z 08004KT 040V110 9999 FEW065 BKN250 22/10
               Q1014 NOSIG=
METAR     LSZR 241420Z 28006KT 240V310 9999 FEW060 SCT200 22/M01
               Q1014 NOSIG RMK J=
METAR     LSZR 241450Z 28004KT 9999 FEW060 22/M02 Q1014 NOSIG RMK K=
METAR     LSGS 241420Z 24010KT 9999 SCT090 25/07 Q1011=
METAR     LSGS 241450Z 24009KT 9999 SCT090 25/08 Q1011=
METAR     LSGC 241420Z 02004KT 340V080 9999 FEW030 BKN055 18/08
               Q1016=
METAR     LSGC 241450Z 02006KT 320V070 9999 FEW030 BKN060 17/06
               Q1016=
METAR     LSZC 241420Z VRB03G15KT 9999 FEW077 SCT140 22/06 Q1014=
METAR     LSZC 241450Z VRB05KT 9999 SCT077 SCT140 23/08 Q1014=
METAR     LSZL 241420Z 27003KT 230V310 9999 FEW065TCU BKN110 22/14
               Q1012 RMK BLU=
METAR     LSZL 241450Z AUTO 28003KT 220V010 9999NDV FEW099 24/14
               Q1012 RMK=
METAR     LSZS 241420Z 32009KT CAVOK 15/M02 Q1016 RMK S=
METAR     LSZS 241450Z 30009KT 9999 FEW050 15/M01 Q1016 RMK T=
METAR     LSMA 241420Z 05008KT 010V080 9999 BKN073 22/09 Q1014 RMK
               BLU=
METAR     LSMA 241450Z AUTO 04008KT 010V070 9999NDV BKN070 21/09
               Q1014 RMK=
METAR RRA LSMD 241420Z AUTO VRB02KT 9999NDV FEW150 23/05 Q1014 RMK=
METAR     LSMD 241450Z AUTO 34004KT 300V020 9999NDV FEW082 22/07
               Q1014 RMK=
METAR RRA LSME 241420Z AUTO 34003KT 300V030 9999NDV NCD 22/08 Q1014
               RMK=
METAR     LSME 241450Z AUTO 31005KT 230V010 9999NDV FEW086 22/08
               Q1014 RMK=
METAR     LSMM 241420Z VRB08KT 9999 SCT080TCU BKN120 21/09 Q1014
               RMK BLU=
METAR     LSMM 241450Z 06006KT 320V110 9999 -SHRA FEW078 SCT093
               BKN120 20/07 Q1014 RMK BLU=
METAR     LSMP 241420Z VRB03KT 9999 SCT150 23/04 Q1014 RMK BLU+=
METAR     LSMP 241450Z 33003KT 250V050 9999 FEW150 24/09 Q1013 RMK
               BLU+=
Updated on Friday, 24 May 2019, 17:15

TAF Switzerland

TAF     LSZH 241125Z 2412/2518 VRB03KT 9999 FEW040 BKN250
             TX23/2415Z TN08/2505Z TX20/2515Z PROB40 TEMPO
             2415/2506 FEW050TCU TEMPO 2506/2518 SHRA FEW050TCU
             PROB40 TEMPO 2509/2518 26012G25KT 4000 TSRA SCT050CB=
TAF     LSGG 241125Z 2412/2518 04005KT 9999 FEW050 FEW060TCU BKN300
             TX22/2415Z TN11/2505Z TX21/2515Z PROB30 TEMPO
             2413/2417 FEW060CB BECMG 2419/2422 CAVOK BECMG
             2508/2511 SCT060TCU BKN120 TEMPO 2511/2518 SHRA
             PROB30 TEMPO 2512/2518 FEW060CB=
TAF RRA LFSB 241100Z 2412/2512 33005KT CAVOK TEMPO 2414/2419
             FEW060TCU PROB30 TEMPO 2415/2418 FEW060CB TEMPO
             2508/2512 FEW050TCU PROB40 TEMPO 2510/2512 FEW050CB=
TAF     LSGS 241125Z 2412/2421 26011KT 9999 FEW080 SCT200 PROB40
             TEMPO 2412/2417 FEW080TCU=
TAF     LSZA 241125Z 2412/2421 19006KT 9999 FEW050TCU SCT060 PROB40
             TEMPO 2412/2421 SHRA=
TAF     LSZB 241125Z 2412/2421 29005KT 9999 FEW060 BKN150 TEMPO
             2412/2421 FEW060TCU PROB40 TEMPO 2412/2421 SHRA=
TAF     LSZG 241125Z 2412/2421 VRB03KT 9999 FEW050 PROB30 TEMPO
             2413/2417 SHRA FEW040TCU BKN050=
TAF     LSZL 241125Z 2412/2421 VRB03KT 9999 SCT050TCU PROB40 TEMPO
             2413/2418 SHRA PROB30 TEMPO 2414/2417 TSRA SCT045CB=
TAF     LSZR 241125Z 2412/2421 28005KT 9999 FEW060=
TAF     LSGC 241125Z 2412/2421 VRB02KT 9999 FEW030 BKN250 BECMG
             2412/2414 SCT040TCU=
TAF     LSZC 241125Z 2412/2421 VRB03KT 9999 FEW070 PROB40 2413/2417
             FEW070TCU PROB30 TEMPO 2414/2416 SHRA=
TAF     LSZS 241125Z 2412/2421 04005KT CAVOK TX18/2415Z PROB40
             2412/2419 9999 FEW050=
TAF     LSMA 240925Z 2410/2516 06010KT 9999 FEW060 PROB40 2413/2419
             FEW060TCU PROB40 TEMPO 2415/2418 4500 TSRA SCT050CB
             BECMG 2416/2418 VRB03KT PROB40 TEMPO 2507/2516 SHRA
             SCT050TCU PROB30 TEMPO 2509/2516 TSRA SCT050CB=
TAF     LSMD 240925Z 2410/2516 VRB03KT CAVOK BECMG 2410/2413 9999
             FEW050 TEMPO 2415/2506 FEW050TCU TEMPO 2506/2516 SHRA
             SCT050TCU PROB40 TEMPO 2509/2516 4500 TSRA SCT050CB=
TAF     LSME 240925Z 2410/2516 VRB03KT 9999 FEW050 PROB40 2413/2420
             FEW060TCU PROB30 2415/2420 4500 TSRA FEW050CB TEMPO
             2507/2516 SHRA SCT050TCU PROB30 TEMPO 2509/2516 TSRA
             SCT045CB=
TAF     LSMM 240925Z 2410/2516 VRB03KT 9999 FEW060 PROB40 2413/2418
             FEW060TCU PROB30 2415/2418 28015G25KT 4500 TSRA
             SCT050CB PROB40 TEMPO 2508/2516 SHRA SCT060TCU=
TAF     LSMP 240925Z 2410/2516 VRB03KT CAVOK BECMG 2410/2413 9999
             FEW080 BKN250 PROB30 TEMPO 2414/2419 SHRA FEW060TCU
             BECMG 2419/2422 CAVOK BECMG 2509/2512 9999 SCT060TCU
             BKN120 TEMPO 2511/2516 SHRA PROB30 TEMPO 2513/2516
             4000 TSRA SCT025 SCT060CB BKN090=
Updated on Friday, 24 May 2019, 15:03